sensor_id;sensor_type;location;lat;lon;timestamp;P1;durP1;ratioP1;P2;durP2;ratioP2
8550;SDS011;4313;42.000;21.380;2023-03-12T00:00:20;18.37;;;6.90;;
8550;SDS011;4313;42.000;21.380;2023-03-12T00:02:49;19.33;;;10.63;;
8550;SDS011;4313;42.000;21.380;2023-03-12T00:05:16;3.67;;;2.50;;
8550;SDS011;4313;42.000;21.380;2023-03-12T00:07:43;3.23;;;2.20;;
8550;SDS011;4313;42.000;21.380;2023-03-12T00:10:10;4.60;;;2.47;;
8550;SDS011;4313;42.000;21.380;2023-03-12T00:12:37;3.23;;;2.40;;
8550;SDS011;4313;42.000;21.380;2023-03-12T00:15:05;5.77;;;2.50;;
8550;SDS011;4313;42.000;21.380;2023-03-12T00:17:33;6.30;;;2.37;;
8550;SDS011;4313;42.000;21.380;2023-03-12T00:20:02;4.77;;;3.07;;
8550;SDS011;4313;42.000;21.380;2023-03-12T00:22:31;3.50;;;2.37;;
8550;SDS011;4313;42.000;21.380;2023-03-12T00:24:58;4.63;;;3.10;;
8550;SDS011;4313;42.000;21.380;2023-03-12T00:27:25;4.23;;;2.43;;
8550;SDS011;4313;42.000;21.380;2023-03-12T00:29:53;3.03;;;2.33;;
8550;SDS011;4313;42.000;21.380;2023-03-12T00:32:20;3.17;;;2.60;;
8550;SDS011;4313;42.000;21.380;2023-03-12T00:34:49;7.53;;;2.53;;
8550;SDS011;4313;42.000;21.380;2023-03-12T00:37:18;4.53;;;2.80;;
8550;SDS011;4313;42.000;21.380;2023-03-12T00:39:46;8.20;;;2.97;;
8550;SDS011;4313;42.000;21.380;2023-03-12T00:42:13;3.60;;;2.20;;
8550;SDS011;4313;42.000;21.380;2023-03-12T00:44:40;3.83;;;2.17;;
8550;SDS011;4313;42.000;21.380;2023-03-12T00:47:08;4.37;;;2.50;;
8550;SDS011;4313;42.000;21.380;2023-03-12T00:49:35;9.47;;;3.17;;
8550;SDS011;4313;42.000;21.380;2023-03-12T00:52:03;4.93;;;3.40;;
8550;SDS011;4313;42.000;21.380;2023-03-12T00:54:33;8.93;;;5.27;;
8550;SDS011;4313;42.000;21.380;2023-03-12T00:57:00;6.73;;;3.40;;
8550;SDS011;4313;42.000;21.380;2023-03-12T00:59:27;5.03;;;2.90;;
8550;SDS011;4313;42.000;21.380;2023-03-12T01:01:55;6.57;;;3.17;;
8550;SDS011;4313;42.000;21.380;2023-03-12T01:04:22;5.10;;;3.00;;
8550;SDS011;4313;42.000;21.380;2023-03-12T01:06:50;5.50;;;2.73;;
8550;SDS011;4313;42.000;21.380;2023-03-12T01:09:17;3.70;;;2.67;;
8550;SDS011;4313;42.000;21.380;2023-03-12T01:11:45;4.60;;;2.70;;
8550;SDS011;4313;42.000;21.380;2023-03-12T01:14:12;5.73;;;3.27;;
8550;SDS011;4313;42.000;21.380;2023-03-12T01:16:39;6.03;;;3.17;;
8550;SDS011;4313;42.000;21.380;2023-03-12T01:19:07;5.30;;;3.07;;
8550;SDS011;4313;42.000;21.380;2023-03-12T01:21:34;5.20;;;2.60;;
8550;SDS011;4313;42.000;21.380;2023-03-12T01:24:01;4.73;;;2.83;;
8550;SDS011;4313;42.000;21.380;2023-03-12T01:26:28;5.70;;;4.40;;
8550;SDS011;4313;42.000;21.380;2023-03-12T01:28:57;7.20;;;4.70;;
8550;SDS011;4313;42.000;21.380;2023-03-12T01:31:24;8.30;;;5.73;;
8550;SDS011;4313;42.000;21.380;2023-03-12T01:33:52;8.93;;;5.63;;
8550;SDS011;4313;42.000;21.380;2023-03-12T01:36:20;6.77;;;4.00;;
8550;SDS011;4313;42.000;21.380;2023-03-12T01:38:49;5.07;;;2.73;;
8550;SDS011;4313;42.000;21.380;2023-03-12T01:41:17;4.17;;;2.40;;
8550;SDS011;4313;42.000;21.380;2023-03-12T01:43:44;6.30;;;3.03;;
8550;SDS011;4313;42.000;21.380;2023-03-12T01:46:21;4.03;;;2.27;;
8550;SDS011;4313;42.000;21.380;2023-03-12T01:48:52;2.60;;;2.40;;
8550;SDS011;4313;42.000;21.380;2023-03-12T01:51:23;3.70;;;2.70;;
8550;SDS011;4313;42.000;21.380;2023-03-12T01:53:52;4.13;;;2.47;;
8550;SDS011;4313;42.000;21.380;2023-03-12T01:56:23;3.77;;;3.00;;
8550;SDS011;4313;42.000;21.380;2023-03-12T01:58:52;7.37;;;3.17;;
8550;SDS011;4313;42.000;21.380;2023-03-12T02:01:23;5.67;;;2.53;;
8550;SDS011;4313;42.000;21.380;2023-03-12T02:03:51;3.00;;;2.70;;
8550;SDS011;4313;42.000;21.380;2023-03-12T02:06:22;3.00;;;2.70;;
8550;SDS011;4313;42.000;21.380;2023-03-12T02:08:52;3.43;;;2.70;;
8550;SDS011;4313;42.000;21.380;2023-03-12T02:11:20;3.77;;;2.73;;
8550;SDS011;4313;42.000;21.380;2023-03-12T02:13:48;5.47;;;2.37;;
8550;SDS011;4313;42.000;21.380;2023-03-12T02:16:15;3.93;;;2.87;;
8550;SDS011;4313;42.000;21.380;2023-03-12T02:18:44;5.00;;;3.17;;
8550;SDS011;4313;42.000;21.380;2023-03-12T02:21:15;7.37;;;4.30;;
8550;SDS011;4313;42.000;21.380;2023-03-12T02:23:46;5.13;;;3.43;;
8550;SDS011;4313;42.000;21.380;2023-03-12T02:26:20;4.77;;;2.67;;
8550;SDS011;4313;42.000;21.380;2023-03-12T02:28:48;3.00;;;2.30;;
8550;SDS011;4313;42.000;21.380;2023-03-12T02:31:18;2.43;;;2.07;;
8550;SDS011;4313;42.000;21.380;2023-03-12T02:33:47;3.97;;;2.33;;
8550;SDS011;4313;42.000;21.380;2023-03-12T02:36:14;4.93;;;2.37;;
8550;SDS011;4313;42.000;21.380;2023-03-12T02:38:42;5.03;;;2.73;;
8550;SDS011;4313;42.000;21.380;2023-03-12T02:41:14;4.53;;;2.70;;
8550;SDS011;4313;42.000;21.380;2023-03-12T02:43:45;3.47;;;2.67;;
8550;SDS011;4313;42.000;21.380;2023-03-12T02:46:14;3.80;;;3.40;;
8550;SDS011;4313;42.000;21.380;2023-03-12T02:48:42;4.17;;;2.70;;
8550;SDS011;4313;42.000;21.380;2023-03-12T02:51:09;5.73;;;3.30;;
8550;SDS011;4313;42.000;21.380;2023-03-12T02:53:36;3.63;;;3.07;;
8550;SDS011;4313;42.000;21.380;2023-03-12T02:56:05;6.90;;;3.33;;
8550;SDS011;4313;42.000;21.380;2023-03-12T02:58:32;5.73;;;3.10;;
8550;SDS011;4313;42.000;21.380;2023-03-12T03:01:02;4.10;;;2.90;;
8550;SDS011;4313;42.000;21.380;2023-03-12T03:03:29;3.27;;;2.97;;
8550;SDS011;4313;42.000;21.380;2023-03-12T03:05:56;6.20;;;3.40;;
8550;SDS011;4313;42.000;21.380;2023-03-12T03:08:23;5.53;;;3.57;;
8550;SDS011;4313;42.000;21.380;2023-03-12T03:10:50;5.50;;;3.50;;
8550;SDS011;4313;42.000;21.380;2023-03-12T03:13:18;4.83;;;3.40;;
8550;SDS011;4313;42.000;21.380;2023-03-12T03:15:45;4.03;;;3.03;;
8550;SDS011;4313;42.000;21.380;2023-03-12T03:18:14;3.60;;;2.90;;
8550;SDS011;4313;42.000;21.380;2023-03-12T03:20:41;9.20;;;3.50;;
8550;SDS011;4313;42.000;21.380;2023-03-12T03:23:09;4.87;;;3.47;;
8550;SDS011;4313;42.000;21.380;2023-03-12T03:25:36;6.23;;;3.40;;
8550;SDS011;4313;42.000;21.380;2023-03-12T03:28:04;7.90;;;4.47;;
8550;SDS011;4313;42.000;21.380;2023-03-12T03:30:31;8.10;;;5.00;;
8550;SDS011;4313;42.000;21.380;2023-03-12T03:32:58;8.07;;;5.60;;
8550;SDS011;4313;42.000;21.380;2023-03-12T03:35:26;6.83;;;5.30;;
8550;SDS011;4313;42.000;21.380;2023-03-12T03:37:54;9.53;;;5.47;;
8550;SDS011;4313;42.000;21.380;2023-03-12T03:40:21;8.63;;;5.50;;
8550;SDS011;4313;42.000;21.380;2023-03-12T03:42:48;10.00;;;5.40;;
8550;SDS011;4313;42.000;21.380;2023-03-12T03:45:15;11.47;;;5.00;;
8550;SDS011;4313;42.000;21.380;2023-03-12T03:47:43;8.37;;;5.77;;
8550;SDS011;4313;42.000;21.380;2023-03-12T03:50:11;8.83;;;6.30;;
8550;SDS011;4313;42.000;21.380;2023-03-12T03:52:40;10.73;;;6.67;;
8550;SDS011;4313;42.000;21.380;2023-03-12T03:55:08;8.27;;;6.20;;
8550;SDS011;4313;42.000;21.380;2023-03-12T03:57:35;9.90;;;6.73;;
8550;SDS011;4313;42.000;21.380;2023-03-12T04:00:03;5.70;;;5.10;;
8550;SDS011;4313;42.000;21.380;2023-03-12T04:02:39;8.13;;;5.37;;
8550;SDS011;4313;42.000;21.380;2023-03-12T04:05:09;7.83;;;5.10;;
8550;SDS011;4313;42.000;21.380;2023-03-12T04:07:37;7.63;;;5.30;;
8550;SDS011;4313;42.000;21.380;2023-03-12T04:10:07;9.20;;;5.27;;
8550;SDS011;4313;42.000;21.380;2023-03-12T04:12:35;8.90;;;5.50;;
8550;SDS011;4313;42.000;21.380;2023-03-12T04:15:02;7.67;;;5.10;;
8550;SDS011;4313;42.000;21.380;2023-03-12T04:17:30;6.57;;;4.83;;
8550;SDS011;4313;42.000;21.380;2023-03-12T04:19:58;6.17;;;4.70;;
8550;SDS011;4313;42.000;21.380;2023-03-12T04:22:25;7.23;;;4.47;;
8550;SDS011;4313;42.000;21.380;2023-03-12T04:24:52;6.37;;;4.37;;
8550;SDS011;4313;42.000;21.380;2023-03-12T04:27:21;7.80;;;4.70;;
8550;SDS011;4313;42.000;21.380;2023-03-12T04:29:49;8.90;;;5.27;;
8550;SDS011;4313;42.000;21.380;2023-03-12T04:32:16;9.00;;;5.70;;
8550;SDS011;4313;42.000;21.380;2023-03-12T04:34:43;14.30;;;8.77;;
8550;SDS011;4313;42.000;21.380;2023-03-12T04:37:16;9.27;;;6.67;;
8550;SDS011;4313;42.000;21.380;2023-03-12T04:39:44;7.67;;;5.10;;
8550;SDS011;4313;42.000;21.380;2023-03-12T04:42:12;10.90;;;6.70;;
8550;SDS011;4313;42.000;21.380;2023-03-12T04:44:43;8.00;;;5.50;;
8550;SDS011;4313;42.000;21.380;2023-03-12T04:47:10;7.60;;;5.60;;
8550;SDS011;4313;42.000;21.380;2023-03-12T04:49:38;29.73;;;14.83;;
8550;SDS011;4313;42.000;21.380;2023-03-12T04:52:05;7.30;;;5.50;;
8550;SDS011;4313;42.000;21.380;2023-03-12T04:54:33;7.43;;;5.20;;
8550;SDS011;4313;42.000;21.380;2023-03-12T04:57:02;7.33;;;5.40;;
8550;SDS011;4313;42.000;21.380;2023-03-12T04:59:29;7.97;;;4.80;;
8550;SDS011;4313;42.000;21.380;2023-03-12T05:01:58;6.80;;;5.37;;
8550;SDS011;4313;42.000;21.380;2023-03-12T05:04:27;10.40;;;5.90;;
8550;SDS011;4313;42.000;21.380;2023-03-12T05:06:55;15.87;;;8.47;;
8550;SDS011;4313;42.000;21.380;2023-03-12T05:09:22;46.57;;;22.00;;
8550;SDS011;4313;42.000;21.380;2023-03-12T05:11:49;22.37;;;11.37;;
8550;SDS011;4313;42.000;21.380;2023-03-12T05:14:18;74.27;;;36.03;;
8550;SDS011;4313;42.000;21.380;2023-03-12T05:16:46;111.77;;;56.20;;
8550;SDS011;4313;42.000;21.380;2023-03-12T05:19:15;35.57;;;21.50;;
8550;SDS011;4313;42.000;21.380;2023-03-12T05:21:42;27.37;;;18.80;;
8550;SDS011;4313;42.000;21.380;2023-03-12T05:24:09;23.63;;;16.20;;
8550;SDS011;4313;42.000;21.380;2023-03-12T05:26:37;5.67;;;4.43;;
8550;SDS011;4313;42.000;21.380;2023-03-12T05:29:10;5.40;;;4.40;;
8550;SDS011;4313;42.000;21.380;2023-03-12T05:31:38;4.80;;;4.03;;
8550;SDS011;4313;42.000;21.380;2023-03-12T05:34:06;6.23;;;4.20;;
8550;SDS011;4313;42.000;21.380;2023-03-12T05:36:38;6.00;;;4.27;;
8550;SDS011;4313;42.000;21.380;2023-03-12T05:39:06;10.80;;;6.77;;
8550;SDS011;4313;42.000;21.380;2023-03-12T05:41:33;8.13;;;5.57;;
8550;SDS011;4313;42.000;21.380;2023-03-12T05:44:18;7.27;;;4.80;;
8550;SDS011;4313;42.000;21.380;2023-03-12T05:46:50;8.67;;;4.60;;
8550;SDS011;4313;42.000;21.380;2023-03-12T05:49:17;9.63;;;4.63;;
8550;SDS011;4313;42.000;21.380;2023-03-12T05:51:46;7.63;;;4.73;;
8550;SDS011;4313;42.000;21.380;2023-03-12T05:54:14;6.00;;;4.83;;
8550;SDS011;4313;42.000;21.380;2023-03-12T05:56:42;6.90;;;4.57;;
8550;SDS011;4313;42.000;21.380;2023-03-12T05:59:09;8.70;;;5.57;;
8550;SDS011;4313;42.000;21.380;2023-03-12T06:01:38;8.43;;;5.20;;
8550;SDS011;4313;42.000;21.380;2023-03-12T06:04:06;7.20;;;5.27;;
8550;SDS011;4313;42.000;21.380;2023-03-12T06:06:34;8.10;;;5.07;;
8550;SDS011;4313;42.000;21.380;2023-03-12T06:09:03;7.93;;;4.97;;
8550;SDS011;4313;42.000;21.380;2023-03-12T06:11:31;9.93;;;5.10;;
8550;SDS011;4313;42.000;21.380;2023-03-12T06:13:59;6.63;;;4.67;;
8550;SDS011;4313;42.000;21.380;2023-03-12T06:16:26;6.53;;;4.50;;
8550;SDS011;4313;42.000;21.380;2023-03-12T06:18:54;6.37;;;4.47;;
8550;SDS011;4313;42.000;21.380;2023-03-12T06:21:23;5.67;;;4.30;;
8550;SDS011;4313;42.000;21.380;2023-03-12T06:23:51;6.17;;;4.13;;
8550;SDS011;4313;42.000;21.380;2023-03-12T06:26:25;5.53;;;3.97;;
8550;SDS011;4313;42.000;21.380;2023-03-12T06:28:53;4.67;;;4.00;;
8550;SDS011;4313;42.000;21.380;2023-03-12T06:31:21;4.53;;;3.93;;
8550;SDS011;4313;42.000;21.380;2023-03-12T06:33:48;5.50;;;4.40;;
8550;SDS011;4313;42.000;21.380;2023-03-12T06:36:15;5.97;;;3.87;;
8550;SDS011;4313;42.000;21.380;2023-03-12T06:38:43;5.17;;;4.17;;
8550;SDS011;4313;42.000;21.380;2023-03-12T06:41:11;6.03;;;4.10;;
8550;SDS011;4313;42.000;21.380;2023-03-12T06:43:41;5.87;;;4.53;;
8550;SDS011;4313;42.000;21.380;2023-03-12T06:46:10;6.73;;;4.73;;
8550;SDS011;4313;42.000;21.380;2023-03-12T06:48:38;7.63;;;4.77;;
8550;SDS011;4313;42.000;21.380;2023-03-12T06:51:06;6.63;;;4.47;;
8550;SDS011;4313;42.000;21.380;2023-03-12T06:53:33;9.03;;;4.50;;
8550;SDS011;4313;42.000;21.380;2023-03-12T06:56:01;4.97;;;4.43;;
8550;SDS011;4313;42.000;21.380;2023-03-12T06:58:28;6.77;;;4.80;;
8550;SDS011;4313;42.000;21.380;2023-03-12T07:00:56;6.27;;;4.50;;
8550;SDS011;4313;42.000;21.380;2023-03-12T07:03:23;6.10;;;4.50;;
8550;SDS011;4313;42.000;21.380;2023-03-12T07:05:51;6.75;;;4.97;;
8550;SDS011;4313;42.000;21.380;2023-03-12T07:08:18;6.88;;;4.50;;
8550;SDS011;4313;42.000;21.380;2023-03-12T07:10:45;6.57;;;4.80;;
8550;SDS011;4313;42.000;21.380;2023-03-12T07:13:12;7.93;;;4.80;;
8550;SDS011;4313;42.000;21.380;2023-03-12T07:15:40;5.57;;;4.75;;
8550;SDS011;4313;42.000;21.380;2023-03-12T07:18:11;7.50;;;4.80;;
8550;SDS011;4313;42.000;21.380;2023-03-12T07:20:39;7.68;;;4.68;;
8550;SDS011;4313;42.000;21.380;2023-03-12T07:23:07;6.28;;;4.32;;
8550;SDS011;4313;42.000;21.380;2023-03-12T07:25:35;6.97;;;4.07;;
8550;SDS011;4313;42.000;21.380;2023-03-12T07:28:02;6.93;;;4.05;;
8550;SDS011;4313;42.000;21.380;2023-03-12T07:30:30;4.35;;;3.50;;
8550;SDS011;4313;42.000;21.380;2023-03-12T07:32:58;5.82;;;4.00;;
8550;SDS011;4313;42.000;21.380;2023-03-12T07:35:27;6.43;;;3.53;;
8550;SDS011;4313;42.000;21.380;2023-03-12T07:37:54;5.57;;;3.33;;
8550;SDS011;4313;42.000;21.380;2023-03-12T07:40:21;8.80;;;3.55;;
8550;SDS011;4313;42.000;21.380;2023-03-12T07:42:48;5.07;;;3.00;;
8550;SDS011;4313;42.000;21.380;2023-03-12T07:45:16;4.60;;;3.00;;
8550;SDS011;4313;42.000;21.380;2023-03-12T07:47:43;4.55;;;3.45;;
8550;SDS011;4313;42.000;21.380;2023-03-12T07:50:10;3.42;;;3.13;;
8550;SDS011;4313;42.000;21.380;2023-03-12T07:52:39;3.65;;;3.28;;
8550;SDS011;4313;42.000;21.380;2023-03-12T07:55:07;5.57;;;3.30;;
8550;SDS011;4313;42.000;21.380;2023-03-12T07:57:35;5.13;;;3.30;;
8550;SDS011;4313;42.000;21.380;2023-03-12T08:00:03;5.18;;;3.38;;
8550;SDS011;4313;42.000;21.380;2023-03-12T08:02:38;3.67;;;3.30;;
8550;SDS011;4313;42.000;21.380;2023-03-12T08:05:05;3.72;;;3.30;;
8550;SDS011;4313;42.000;21.380;2023-03-12T08:07:33;4.40;;;3.33;;
8550;SDS011;4313;42.000;21.380;2023-03-12T08:10:02;3.50;;;3.10;;
8550;SDS011;4313;42.000;21.380;2023-03-12T08:12:30;6.38;;;4.97;;
8550;SDS011;4313;42.000;21.380;2023-03-12T08:14:58;5.03;;;2.95;;
8550;SDS011;4313;42.000;21.380;2023-03-12T08:17:25;4.63;;;3.40;;
8550;SDS011;4313;42.000;21.380;2023-03-12T08:19:52;4.55;;;2.90;;
8550;SDS011;4313;42.000;21.380;2023-03-12T08:22:19;3.80;;;3.20;;
8550;SDS011;4313;42.000;21.380;2023-03-12T08:24:46;3.65;;;3.10;;
8550;SDS011;4313;42.000;21.380;2023-03-12T08:27:15;3.28;;;2.97;;
8550;SDS011;4313;42.000;21.380;2023-03-12T08:29:42;3.67;;;3.38;;
8550;SDS011;4313;42.000;21.380;2023-03-12T08:32:09;4.63;;;4.13;;
8550;SDS011;4313;42.000;21.380;2023-03-12T08:34:36;5.18;;;3.35;;
8550;SDS011;4313;42.000;21.380;2023-03-12T08:37:04;3.80;;;3.50;;
8550;SDS011;4313;42.000;21.380;2023-03-12T08:39:31;4.35;;;3.95;;
8550;SDS011;4313;42.000;21.380;2023-03-12T08:41:58;3.63;;;3.28;;
8550;SDS011;4313;42.000;21.380;2023-03-12T08:44:27;3.40;;;3.10;;
8550;SDS011;4313;42.000;21.380;2023-03-12T08:46:55;3.42;;;3.13;;
8550;SDS011;4313;42.000;21.380;2023-03-12T08:49:23;5.32;;;3.50;;
8550;SDS011;4313;42.000;21.380;2023-03-12T08:51:50;3.20;;;2.90;;
8550;SDS011;4313;42.000;21.380;2023-03-12T08:54:18;3.78;;;3.10;;
8550;SDS011;4313;42.000;21.380;2023-03-12T08:56:48;3.10;;;2.80;;
8550;SDS011;4313;42.000;21.380;2023-03-12T08:59:16;3.65;;;3.25;;
8550;SDS011;4313;42.000;21.380;2023-03-12T09:01:45;5.78;;;3.72;;
8550;SDS011;4313;42.000;21.380;2023-03-12T09:04:12;5.63;;;3.22;;
8550;SDS011;4313;42.000;21.380;2023-03-12T09:06:40;4.80;;;3.83;;
8550;SDS011;4313;42.000;21.380;2023-03-12T09:09:07;4.32;;;3.70;;
8550;SDS011;4313;42.000;21.380;2023-03-12T09:11:35;5.13;;;3.90;;
8550;SDS011;4313;42.000;21.380;2023-03-12T09:14:03;4.38;;;3.60;;
8550;SDS011;4313;42.000;21.380;2023-03-12T09:16:31;4.72;;;3.60;;
8550;SDS011;4313;42.000;21.380;2023-03-12T09:18:59;6.30;;;3.42;;
8550;SDS011;4313;42.000;21.380;2023-03-12T09:21:26;4.30;;;3.70;;
8550;SDS011;4313;42.000;21.380;2023-03-12T09:23:54;5.30;;;3.70;;
8550;SDS011;4313;42.000;21.380;2023-03-12T09:26:21;5.47;;;4.20;;
8550;SDS011;4313;42.000;21.380;2023-03-12T09:28:48;5.28;;;3.72;;
8550;SDS011;4313;42.000;21.380;2023-03-12T09:31:15;5.25;;;3.80;;
8550;SDS011;4313;42.000;21.380;2023-03-12T09:33:42;4.47;;;3.42;;
8550;SDS011;4313;42.000;21.380;2023-03-12T09:36:11;6.85;;;3.80;;
8550;SDS011;4313;42.000;21.380;2023-03-12T09:38:38;5.25;;;3.63;;
8550;SDS011;4313;42.000;21.380;2023-03-12T09:41:11;6.45;;;3.47;;
8550;SDS011;4313;42.000;21.380;2023-03-12T09:43:44;3.75;;;3.28;;
8550;SDS011;4313;42.000;21.380;2023-03-12T09:46:16;4.30;;;3.20;;
8550;SDS011;4313;42.000;21.380;2023-03-12T09:48:47;6.68;;;3.20;;
8550;SDS011;4313;42.000;21.380;2023-03-12T09:51:17;5.35;;;2.88;;
8550;SDS011;4313;42.000;21.380;2023-03-12T09:53:48;4.97;;;3.08;;
8550;SDS011;4313;42.000;21.380;2023-03-12T09:56:19;5.35;;;3.47;;
8550;SDS011;4313;42.000;21.380;2023-03-12T09:58:47;4.28;;;2.83;;
8550;SDS011;4313;42.000;21.380;2023-03-12T10:01:21;4.40;;;3.47;;
8550;SDS011;4313;42.000;21.380;2023-03-12T10:03:59;5.30;;;3.53;;
8550;SDS011;4313;42.000;21.380;2023-03-12T10:06:34;3.08;;;2.80;;
8550;SDS011;4313;42.000;21.380;2023-03-12T10:09:12;2.92;;;2.72;;
8550;SDS011;4313;42.000;21.380;2023-03-12T10:11:48;4.25;;;2.55;;
8550;SDS011;4313;42.000;21.380;2023-03-12T10:14:25;3.85;;;2.80;;
8550;SDS011;4313;42.000;21.380;2023-03-12T10:17:02;4.68;;;4.05;;
8550;SDS011;4313;42.000;21.380;2023-03-12T10:19:51;3.20;;;2.90;;
8550;SDS011;4313;42.000;21.380;2023-03-12T10:22:45;5.30;;;3.53;;
8550;SDS011;4313;42.000;21.380;2023-03-12T10:25:18;4.43;;;3.47;;
8550;SDS011;4313;42.000;21.380;2023-03-12T10:27:48;4.38;;;2.83;;
8550;SDS011;4313;42.000;21.380;2023-03-12T10:30:16;6.18;;;3.50;;
8550;SDS011;4313;42.000;21.380;2023-03-12T10:32:46;4.15;;;3.08;;
8550;SDS011;4313;42.000;21.380;2023-03-12T10:35:16;4.97;;;3.20;;
8550;SDS011;4313;42.000;21.380;2023-03-12T10:37:47;5.05;;;3.63;;
8550;SDS011;4313;42.000;21.380;2023-03-12T10:40:17;3.72;;;3.30;;
8550;SDS011;4313;42.000;21.380;2023-03-12T10:42:46;5.47;;;3.20;;
8550;SDS011;4313;42.000;21.380;2023-03-12T10:45:16;3.80;;;3.20;;
8550;SDS011;4313;42.000;21.380;2023-03-12T10:47:52;5.53;;;3.97;;
8550;SDS011;4313;42.000;21.380;2023-03-12T10:50:22;4.28;;;3.30;;
8550;SDS011;4313;42.000;21.380;2023-03-12T10:52:52;4.80;;;3.22;;
8550;SDS011;4313;42.000;21.380;2023-03-12T10:55:38;3.55;;;2.92;;
8550;SDS011;4313;42.000;21.380;2023-03-12T10:58:05;4.07;;;3.35;;
8550;SDS011;4313;42.000;21.380;2023-03-12T11:00:32;4.93;;;3.13;;
8550;SDS011;4313;42.000;21.380;2023-03-12T11:03:00;3.88;;;3.08;;
8550;SDS011;4313;42.000;21.380;2023-03-12T11:05:28;6.18;;;3.20;;
8550;SDS011;4313;42.000;21.380;2023-03-12T11:07:58;2.83;;;2.53;;
8550;SDS011;4313;42.000;21.380;2023-03-12T11:10:37;3.13;;;2.75;;
8550;SDS011;4313;42.000;21.380;2023-03-12T11:13:20;4.25;;;3.70;;
8550;SDS011;4313;42.000;21.380;2023-03-12T11:15:48;7.20;;;5.28;;
8550;SDS011;4313;42.000;21.380;2023-03-12T11:18:21;3.70;;;3.30;;
8550;SDS011;4313;42.000;21.380;2023-03-12T11:20:51;3.08;;;2.78;;
8550;SDS011;4313;42.000;21.380;2023-03-12T11:23:23;4.70;;;2.50;;
8550;SDS011;4313;42.000;21.380;2023-03-12T11:25:53;3.30;;;2.80;;
8550;SDS011;4313;42.000;21.380;2023-03-12T11:28:23;3.45;;;2.60;;
8550;SDS011;4313;42.000;21.380;2023-03-12T11:30:52;4.35;;;2.83;;
8550;SDS011;4313;42.000;21.380;2023-03-12T11:33:19;4.05;;;2.83;;
8550;SDS011;4313;42.000;21.380;2023-03-12T11:35:48;4.35;;;2.80;;
8550;SDS011;4313;42.000;21.380;2023-03-12T11:38:32;4.15;;;3.70;;
8550;SDS011;4313;42.000;21.380;2023-03-12T11:41:03;2.90;;;2.65;;
8550;SDS011;4313;42.000;21.380;2023-03-12T11:43:42;4.47;;;3.10;;
8550;SDS011;4313;42.000;21.380;2023-03-12T11:46:20;5.60;;;2.92;;
8550;SDS011;4313;42.000;21.380;2023-03-12T11:48:55;4.47;;;2.80;;
8550;SDS011;4313;42.000;21.380;2023-03-12T11:51:34;5.78;;;3.33;;
8550;SDS011;4313;42.000;21.380;2023-03-12T11:54:13;5.93;;;3.10;;
8550;SDS011;4313;42.000;21.380;2023-03-12T11:56:47;3.40;;;2.78;;
8550;SDS011;4313;42.000;21.380;2023-03-12T11:59:25;6.32;;;3.80;;
8550;SDS011;4313;42.000;21.380;2023-03-12T12:02:11;6.57;;;2.90;;
8550;SDS011;4313;42.000;21.380;2023-03-12T12:04:52;4.70;;;3.00;;
8550;SDS011;4313;42.000;21.380;2023-03-12T12:07:30;7.22;;;3.20;;
8550;SDS011;4313;42.000;21.380;2023-03-12T12:10:05;4.32;;;2.70;;
8550;SDS011;4313;42.000;21.380;2023-03-12T12:12:40;6.07;;;3.00;;
8550;SDS011;4313;42.000;21.380;2023-03-12T12:15:14;4.45;;;3.20;;
8550;SDS011;4313;42.000;21.380;2023-03-12T12:17:51;5.25;;;3.38;;
8550;SDS011;4313;42.000;21.380;2023-03-12T12:20:27;3.72;;;2.70;;
8550;SDS011;4313;42.000;21.380;2023-03-12T12:23:06;5.70;;;3.60;;
8550;SDS011;4313;42.000;21.380;2023-03-12T12:25:45;3.97;;;3.10;;
8550;SDS011;4313;42.000;21.380;2023-03-12T12:28:21;3.92;;;2.88;;
8550;SDS011;4313;42.000;21.380;2023-03-12T12:31:07;6.30;;;3.00;;
8550;SDS011;4313;42.000;21.380;2023-03-12T12:33:48;4.80;;;2.80;;
8550;SDS011;4313;42.000;21.380;2023-03-12T12:36:20;4.57;;;3.20;;
8550;SDS011;4313;42.000;21.380;2023-03-12T12:38:49;4.68;;;2.92;;
8550;SDS011;4313;42.000;21.380;2023-03-12T12:41:22;4.10;;;2.63;;
8550;SDS011;4313;42.000;21.380;2023-03-12T12:43:52;7.40;;;2.90;;
8550;SDS011;4313;42.000;21.380;2023-03-12T12:46:21;5.82;;;3.33;;
8550;SDS011;4313;42.000;21.380;2023-03-12T12:48:51;4.55;;;3.00;;
8550;SDS011;4313;42.000;21.380;2023-03-12T12:51:20;6.93;;;3.00;;
8550;SDS011;4313;42.000;21.380;2023-03-12T12:53:50;5.45;;;3.47;;
8550;SDS011;4313;42.000;21.380;2023-03-12T12:56:23;3.63;;;2.55;;
8550;SDS011;4313;42.000;21.380;2023-03-12T12:58:56;2.92;;;2.60;;
8550;SDS011;4313;42.000;21.380;2023-03-12T13:01:29;3.60;;;2.58;;
8550;SDS011;4313;42.000;21.380;2023-03-12T13:03:58;4.07;;;2.75;;
8550;SDS011;4313;42.000;21.380;2023-03-12T13:09:23;3.58;;;2.90;;
8550;SDS011;4313;42.000;21.380;2023-03-12T13:12:17;4.18;;;2.60;;
8550;SDS011;4313;42.000;21.380;2023-03-12T13:14:46;3.95;;;2.72;;
8550;SDS011;4313;42.000;21.380;2023-03-12T13:17:18;4.13;;;2.40;;
8550;SDS011;4313;42.000;21.380;2023-03-12T13:19:48;3.65;;;2.45;;
8550;SDS011;4313;42.000;21.380;2023-03-12T13:22:19;3.25;;;2.58;;
8550;SDS011;4313;42.000;21.380;2023-03-12T13:24:53;3.72;;;3.08;;
8550;SDS011;4313;42.000;21.380;2023-03-12T13:27:28;3.15;;;2.85;;
8550;SDS011;4313;42.000;21.380;2023-03-12T13:29:55;4.32;;;3.00;;
8550;SDS011;4313;42.000;21.380;2023-03-12T13:32:36;4.28;;;2.72;;
8550;SDS011;4313;42.000;21.380;2023-03-12T13:35:27;4.57;;;3.17;;
8550;SDS011;4313;42.000;21.380;2023-03-12T13:37:58;4.30;;;2.58;;
8550;SDS011;4313;42.000;21.380;2023-03-12T13:40:37;5.85;;;4.00;;
8550;SDS011;4313;42.000;21.380;2023-03-12T13:46:26;3.75;;;3.15;;
8550;SDS011;4313;42.000;21.380;2023-03-12T13:49:15;5.72;;;3.92;;
8550;SDS011;4313;42.000;21.380;2023-03-12T13:54:38;15.68;;;11.95;;
8550;SDS011;4313;42.000;21.380;2023-03-12T13:57:09;6.70;;;4.10;;
8550;SDS011;4313;42.000;21.380;2023-03-12T13:59:42;5.78;;;3.22;;
8550;SDS011;4313;42.000;21.380;2023-03-12T14:02:14;3.55;;;2.67;;
8550;SDS011;4313;42.000;21.380;2023-03-12T14:04:46;3.35;;;2.85;;
8550;SDS011;4313;42.000;21.380;2023-03-12T14:10:24;3.70;;;2.97;;
8550;SDS011;4313;42.000;21.380;2023-03-12T14:12:57;5.00;;;3.42;;
8550;SDS011;4313;42.000;21.380;2023-03-12T14:15:35;4.72;;;2.95;;
8550;SDS011;4313;42.000;21.380;2023-03-12T14:18:10;3.53;;;2.95;;
8550;SDS011;4313;42.000;21.380;2023-03-12T14:20:40;4.00;;;2.60;;
8550;SDS011;4313;42.000;21.380;2023-03-12T14:23:16;4.93;;;3.40;;
8550;SDS011;4313;42.000;21.380;2023-03-12T14:25:44;7.35;;;4.25;;
8550;SDS011;4313;42.000;21.380;2023-03-12T14:28:13;6.60;;;3.67;;
8550;SDS011;4313;42.000;21.380;2023-03-12T14:30:46;3.85;;;3.10;;
8550;SDS011;4313;42.000;21.380;2023-03-12T14:33:15;5.25;;;3.70;;
8550;SDS011;4313;42.000;21.380;2023-03-12T14:35:43;3.50;;;2.63;;
8550;SDS011;4313;42.000;21.380;2023-03-12T14:38:14;4.70;;;2.92;;
8550;SDS011;4313;42.000;21.380;2023-03-12T14:40:43;4.40;;;2.97;;
8550;SDS011;4313;42.000;21.380;2023-03-12T14:43:23;6.05;;;3.55;;
8550;SDS011;4313;42.000;21.380;2023-03-12T14:45:56;3.47;;;3.17;;
8550;SDS011;4313;42.000;21.380;2023-03-12T14:48:26;4.25;;;3.13;;
8550;SDS011;4313;42.000;21.380;2023-03-12T14:50:55;2.95;;;2.60;;
8550;SDS011;4313;42.000;21.380;2023-03-12T14:53:23;5.10;;;3.53;;
8550;SDS011;4313;42.000;21.380;2023-03-12T14:55:58;16.05;;;11.98;;
8550;SDS011;4313;42.000;21.380;2023-03-12T14:58:29;15.23;;;10.43;;
8550;SDS011;4313;42.000;21.380;2023-03-12T15:00:59;26.85;;;19.23;;
8550;SDS011;4313;42.000;21.380;2023-03-12T15:03:29;17.20;;;11.15;;
8550;SDS011;4313;42.000;21.380;2023-03-12T15:05:57;31.88;;;20.13;;
8550;SDS011;4313;42.000;21.380;2023-03-12T15:08:24;15.82;;;10.02;;
8550;SDS011;4313;42.000;21.380;2023-03-12T15:10:53;9.88;;;7.97;;
8550;SDS011;4313;42.000;21.380;2023-03-12T15:13:21;10.30;;;8.07;;
8550;SDS011;4313;42.000;21.380;2023-03-12T15:15:50;6.75;;;5.40;;
8550;SDS011;4313;42.000;21.380;2023-03-12T15:18:20;3.95;;;3.22;;
8550;SDS011;4313;42.000;21.380;2023-03-12T15:20:48;3.47;;;3.03;;
8550;SDS011;4313;42.000;21.380;2023-03-12T15:23:17;7.40;;;3.65;;
8550;SDS011;4313;42.000;21.380;2023-03-12T15:25:45;4.78;;;3.70;;
8550;SDS011;4313;42.000;21.380;2023-03-12T15:31:03;7.40;;;5.05;;